AAY1311 KSFB-KMEM
Flight info
| Callsign | AAY1311 |
|---|---|
| Flight time | N/A |
| Altitude | 34000 |
| Route | WORMS JEEMY ACCHE PAINN SHRKS Q89 YANTI MCN VLKNN CRAMM VANZE3 |
| Aircraft | A320/L-VGDW/C |
Departure
| Time | 2026-04-28 22:22 |
|---|---|
| Airport | Orlando Sanford International Airport (KSFB) |
Arrival
| Time | N/A |
|---|---|
| Airport | Memphis International Airport (KMEM) |
| Time | Latitude | Longitude | Altitude | Speed | Heading |
|---|---|---|---|---|---|
| 2026-04-28 21:43 | 28.77661 | -81.24531 | 54 ft | 0 kts | 236° |
| 2026-04-28 22:08 | 28.77661 | -81.24530 | 61 ft | 1 kts | 236° |
| 2026-04-28 22:08 | 28.77670 | -81.24514 | 53 ft | 3 kts | 236° |
| 2026-04-28 22:09 | 28.77680 | -81.24497 | 51 ft | 3 kts | 236° |
| 2026-04-28 22:09 | 28.77690 | -81.24480 | 53 ft | 3 kts | 214° |
| 2026-04-28 22:09 | 28.77707 | -81.24476 | 52 ft | 3 kts | 137° |
| 2026-04-28 22:09 | 28.77714 | -81.24487 | 52 ft | 0 kts | 104° |
| 2026-04-28 22:15 | 28.77711 | -81.24470 | 51 ft | 4 kts | 98° |
| 2026-04-28 22:15 | 28.77731 | -81.24409 | 58 ft | 13 kts | 66° |
| 2026-04-28 22:16 | 28.77764 | -81.24299 | 54 ft | 15 kts | 82° |
| 2026-04-28 22:16 | 28.77765 | -81.24171 | 59 ft | 18 kts | 90° |
| 2026-04-28 22:16 | 28.77764 | -81.24011 | 58 ft | 21 kts | 90° |
| 2026-04-28 22:16 | 28.77765 | -81.23838 | 60 ft | 22 kts | 90° |
| 2026-04-28 22:17 | 28.77765 | -81.23699 | 61 ft | 13 kts | 90° |
| 2026-04-28 22:17 | 28.77813 | -81.23633 | 58 ft | 15 kts | 359° |
| 2026-04-28 22:17 | 28.77947 | -81.23636 | 57 ft | 23 kts | 360° |
| 2026-04-28 22:17 | 28.78065 | -81.23604 | 63 ft | 11 kts | 64° |
| 2026-04-28 22:18 | 28.78066 | -81.23591 | 60 ft | 0 kts | 85° |
| 2026-04-28 22:18 | 28.78067 | -81.23590 | 60 ft | 1 kts | 82° |
| 2026-04-28 22:18 | 28.78067 | -81.23540 | 61 ft | 16 kts | 94° |
| 2026-04-28 22:18 | 28.78016 | -81.23404 | 58 ft | 22 kts | 103° |
| 2026-04-28 22:19 | 28.78014 | -81.23204 | 56 ft | 29 kts | 89° |
| 2026-04-28 22:19 | 28.78016 | -81.22969 | 56 ft | 29 kts | 89° |
| 2026-04-28 22:19 | 28.78013 | -81.22748 | 57 ft | 27 kts | 91° |
| 2026-04-28 22:19 | 28.78013 | -81.22545 | 61 ft | 24 kts | 90° |
| 2026-04-28 22:20 | 28.78013 | -81.22423 | 63 ft | 23 kts | 90° |
| 2026-04-28 22:20 | 28.78013 | -81.22245 | 59 ft | 9 kts | 90° |
| 2026-04-28 22:20 | 28.78013 | -81.22236 | 59 ft | 0 kts | 90° |
| 2026-04-28 22:20 | 28.78045 | -81.22176 | 61 ft | 15 kts | 20° |
| 2026-04-28 22:21 | 28.78162 | -81.22190 | 66 ft | 17 kts | 322° |
| 2026-04-28 22:21 | 28.78180 | -81.22328 | 61 ft | 22 kts | 270° |
| 2026-04-28 22:21 | 28.78180 | -81.22787 | 54 ft | 97 kts | 270° |
| 2026-04-28 22:21 | 28.78179 | -81.23803 | 66 ft | 156 kts | 270° |
| 2026-04-28 22:22 | 28.78177 | -81.25229 | 217 ft | 195 kts | 271° |
| 2026-04-28 22:22 | 28.78162 | -81.26804 | 680 ft | 202 kts | 269° |
| 2026-04-28 22:22 | 28.78125 | -81.28424 | 1192 ft | 203 kts | 258° |
| 2026-04-28 22:22 | 28.77962 | -81.30030 | 1730 ft | 206 kts | 252° |
| 2026-04-28 22:23 | 28.77654 | -81.31634 | 2442 ft | 207 kts | 245° |
| 2026-04-28 22:23 | 28.77212 | -81.33259 | 2885 ft | 229 kts | 243° |
| 2026-04-28 22:23 | 28.76633 | -81.35042 | 3079 ft | 254 kts | 243° |
| 2026-04-28 22:23 | 28.75988 | -81.36949 | 3203 ft | 261 kts | 243° |
| 2026-04-28 22:24 | 28.75332 | -81.38874 | 3390 ft | 260 kts | 243° |
| 2026-04-28 22:24 | 28.74680 | -81.40791 | 3588 ft | 258 kts | 243° |
| 2026-04-28 22:24 | 28.74028 | -81.42701 | 3790 ft | 259 kts | 243° |
| 2026-04-28 22:24 | 28.73370 | -81.44613 | 4013 ft | 259 kts | 243° |
| 2026-04-28 22:25 | 28.72708 | -81.46521 | 4267 ft | 278 kts | 244° |
| 2026-04-28 22:25 | 28.71972 | -81.48677 | 4655 ft | 304 kts | 245° |
| 2026-04-28 22:25 | 28.71210 | -81.51011 | 5116 ft | 325 kts | 246° |
| 2026-04-28 22:25 | 28.70439 | -81.53508 | 5612 ft | 343 kts | 248° |
| 2026-04-28 22:26 | 28.69676 | -81.56138 | 6160 ft | 357 kts | 249° |
| 2026-04-28 22:26 | 28.68930 | -81.58883 | 6732 ft | 369 kts | 250° |
| 2026-04-28 22:26 | 28.68218 | -81.61701 | 7299 ft | 379 kts | 252° |
| 2026-04-28 22:26 | 28.67531 | -81.64633 | 7891 ft | 387 kts | 253° |
| 2026-04-28 22:27 | 28.66903 | -81.67552 | 8428 ft | 362 kts | 255° |
| 2026-04-28 22:27 | 28.66390 | -81.70215 | 8874 ft | 330 kts | 255° |
| 2026-04-28 22:27 | 28.65968 | -81.72676 | 9248 ft | 309 kts | 256° |
| 2026-04-28 22:27 | 28.65594 | -81.75075 | 9605 ft | 308 kts | 257° |
| 2026-04-28 22:28 | 28.65247 | -81.77487 | 9967 ft | 309 kts | 258° |
| 2026-04-28 22:28 | 28.64922 | -81.79900 | 10293 ft | 308 kts | 259° |
| 2026-04-28 22:28 | 28.64613 | -81.82314 | 10630 ft | 311 kts | 259° |
| 2026-04-28 22:28 | 28.64314 | -81.84790 | 11034 ft | 321 kts | 260° |
| 2026-04-28 22:29 | 28.64027 | -81.87336 | 11508 ft | 327 kts | 261° |
| 2026-04-28 22:29 | 28.63763 | -81.89901 | 11985 ft | 323 kts | 262° |
| 2026-04-28 22:29 | 28.63528 | -81.92424 | 12419 ft | 319 kts | 263° |
| 2026-04-28 22:29 | 28.63355 | -81.94443 | 12766 ft | 316 kts | 263° |